createdAt,value
2018-10-07T00:01:27.248Z,99886.25
2018-10-07T00:03:56.070Z,99888.69
2018-10-07T00:06:24.910Z,99889.64
2018-10-07T00:08:54.017Z,99894.62
2018-10-07T00:11:22.882Z,99899.93
2018-10-07T00:13:51.740Z,99904.48
2018-10-07T00:16:20.942Z,99911.33
2018-10-07T00:18:49.832Z,99915.14
2018-10-07T00:21:18.636Z,99920.92
2018-10-07T00:23:47.782Z,99916.02
2018-10-07T00:26:16.730Z,99916.27
2018-10-07T00:28:45.556Z,99914.83
2018-10-07T00:31:14.782Z,99916.41
2018-10-07T00:33:43.630Z,99918.49
2018-10-07T00:36:12.595Z,99919.59
2018-10-07T00:38:41.756Z,99916.52
2018-10-07T00:41:10.603Z,99920.97
2018-10-07T00:43:39.466Z,99923.31
2018-10-07T00:46:09.177Z,99925.50
2018-10-07T00:48:38.202Z,99927.67
2018-10-07T00:51:07.072Z,99931.42
2018-10-07T00:53:36.285Z,99928.43
2018-10-07T00:56:05.766Z,99929.16
2018-10-07T00:58:34.629Z,99932.27
2018-10-07T01:01:03.623Z,99929.87
2018-10-07T01:03:32.494Z,99930.14
2018-10-07T01:06:01.960Z,99930.53
2018-10-07T01:08:30.836Z,99934.63
2018-10-07T01:10:59.752Z,99935.75
2018-10-07T01:13:28.635Z,99937.80
2018-10-07T01:15:57.480Z,99934.33
2018-10-07T01:18:26.635Z,99936.14
2018-10-07T01:20:55.562Z,99931.59
2018-10-07T01:23:24.442Z,99937.61
2018-10-07T01:25:53.714Z,99937.27
2018-10-07T01:28:22.598Z,99939.20
2018-10-07T01:30:51.467Z,99933.91
2018-10-07T01:33:20.703Z,99935.34
2018-10-07T01:35:49.641Z,99941.30
2018-10-07T01:38:18.534Z,99943.19
2018-10-07T01:40:47.682Z,99954.16
2018-10-07T01:43:16.583Z,99956.53
2018-10-07T01:45:45.445Z,99965.61
2018-10-07T01:48:14.674Z,99973.09
2018-10-07T01:50:43.564Z,99971.87
2018-10-07T01:53:12.386Z,99966.27
2018-10-07T01:55:41.510Z,99957.61
2018-10-07T01:58:10.326Z,99958.22
2018-10-07T02:00:39.183Z,99965.08
2018-10-07T02:03:08.277Z,99957.91
2018-10-07T02:05:37.391Z,99966.67
2018-10-07T02:08:06.430Z,99967.08
2018-10-07T02:10:35.548Z,99970.30
2018-10-07T02:13:04.469Z,99976.72
2018-10-07T02:15:34.182Z,99969.64
2018-10-07T02:18:04.113Z,99968.32
2018-10-07T02:20:32.981Z,99972.52
2018-10-07T02:23:01.895Z,99971.09
2018-10-07T02:25:30.944Z,99970.75
2018-10-07T02:27:59.861Z,99970.98
2018-10-07T02:30:29.063Z,99966.77
2018-10-07T02:32:57.918Z,99974.00
2018-10-07T02:35:26.763Z,99984.83
2018-10-07T02:37:55.658Z,99983.02
2018-10-07T02:40:24.601Z,99983.28
2018-10-07T02:42:53.852Z,99982.91
2018-10-07T02:45:22.691Z,99983.17
2018-10-07T02:47:51.547Z,99986.39
2018-10-07T02:50:21.773Z,99985.05
2018-10-07T02:52:54.656Z,99989.89
2018-10-07T02:55:28.353Z,99995.53
2018-10-07T02:57:58.726Z,99994.09
2018-10-07T03:00:27.601Z,99999.89
2018-10-07T03:02:56.475Z,100000.97
2018-10-07T03:05:25.619Z,100006.73
2018-10-07T03:07:54.472Z,100010.45
2018-10-07T03:10:23.380Z,100006.74
2018-10-07T03:12:52.236Z,100005.52
2018-10-07T03:15:21.090Z,100008.89
2018-10-07T03:17:49.934Z,100007.09
2018-10-07T03:20:19.345Z,100004.08
2018-10-07T03:22:48.221Z,100008.65
2018-10-07T03:25:17.095Z,100007.08
2018-10-07T03:27:46.258Z,100005.75
2018-10-07T03:30:15.132Z,100005.29
2018-10-07T03:32:44.007Z,100004.70
2018-10-07T03:35:13.217Z,100006.36
2018-10-07T03:37:42.136Z,100006.73
2018-10-07T03:40:11.053Z,100010.94
2018-10-07T03:42:40.286Z,100012.25
2018-10-07T03:45:09.160Z,100010.69
2018-10-07T03:47:38.083Z,100006.84
2018-10-07T03:50:07.102Z,100021.02
2018-10-07T03:52:36.002Z,100026.66
2018-10-07T03:55:05.214Z,100024.02
2018-10-07T03:57:34.069Z,100025.33
2018-10-07T04:00:03.719Z,100040.60
2018-10-07T04:02:32.889Z,100032.67
2018-10-07T04:05:01.915Z,100037.23
2018-10-07T04:07:30.761Z,100040.35
2018-10-07T04:09:59.882Z,100037.45
2018-10-07T04:12:28.728Z,100036.60
2018-10-07T04:14:57.590Z,100042.87
2018-10-07T04:17:26.725Z,100042.14
2018-10-07T04:19:55.610Z,100039.38
2018-10-07T04:22:24.433Z,100044.91
2018-10-07T04:24:53.629Z,100046.48
2018-10-07T04:27:22.458Z,100060.31
2018-10-07T04:29:51.299Z,100060.44
2018-10-07T04:32:20.537Z,100071.36
2018-10-07T04:34:49.373Z,100072.33
2018-10-07T04:37:18.219Z,100075.92
2018-10-07T04:39:47.369Z,100079.89
2018-10-07T04:42:16.254Z,100083.46
2018-10-07T04:44:45.152Z,100086.49
2018-10-07T04:47:14.300Z,100092.45
2018-10-07T04:49:43.186Z,100100.25
2018-10-07T04:52:12.029Z,100098.42
2018-10-07T04:54:41.166Z,100098.66
2018-10-07T04:57:10.080Z,100102.30
2018-10-07T04:59:38.935Z,100100.24
2018-10-07T05:02:07.807Z,100106.79
2018-10-07T05:04:36.670Z,100113.23
2018-10-07T05:07:06.111Z,100123.40
2018-10-07T05:09:35.363Z,100129.39
2018-10-07T05:12:05.820Z,100128.42
2018-10-07T05:14:34.663Z,100136.34
2018-10-07T05:17:04.349Z,100144.13
2018-10-07T05:19:33.553Z,100149.42
2018-10-07T05:22:03.043Z,100154.84
2018-10-07T05:24:31.901Z,100140.43
2018-10-07T05:27:01.114Z,100140.55
2018-10-07T05:29:29.975Z,100153.77
2018-10-07T05:31:58.920Z,100158.66
2018-10-07T05:34:28.125Z,100159.98
2018-10-07T05:36:57.342Z,100162.03
2018-10-07T05:39:26.211Z,100163.83
2018-10-07T05:41:55.339Z,100157.28
2018-10-07T05:44:24.265Z,100164.23
2018-10-07T05:46:53.194Z,100162.32
2018-10-07T05:49:22.321Z,100164.62
2018-10-07T05:51:51.151Z,100165.81
2018-10-07T05:54:20.012Z,100173.98
2018-10-07T05:56:49.159Z,100164.82
2018-10-07T05:59:18.078Z,100169.52
2018-10-07T06:01:47.053Z,100167.26
2018-10-07T06:04:21.177Z,100173.13
2018-10-07T06:06:50.114Z,100177.30
2018-10-07T06:09:23.701Z,100179.21
2018-10-07T06:11:53.160Z,100184.38
2018-10-07T06:14:33.431Z,100187.52
2018-10-07T06:17:02.645Z,100199.41
2018-10-07T06:19:31.871Z,100209.48
2018-10-07T06:22:03.693Z,100209.27
2018-10-07T06:24:32.932Z,100208.48
2018-10-07T06:27:01.843Z,100214.84
2018-10-07T06:29:30.998Z,100218.25
2018-10-07T06:31:59.884Z,100216.84
2018-10-07T06:34:28.871Z,100217.67
2018-10-07T06:36:58.130Z,100223.22
2018-10-07T06:39:27.026Z,100226.86
2018-10-07T06:41:55.904Z,100230.30
2018-10-07T06:44:25.124Z,100232.34
2018-10-07T06:46:54.090Z,100236.41
2018-10-07T06:49:22.959Z,100242.45
2018-10-07T06:51:52.160Z,100243.45
2018-10-07T06:54:21.041Z,100245.44
2018-10-07T06:56:50.496Z,100246.66
2018-10-07T06:59:19.739Z,100250.33
2018-10-07T07:01:48.594Z,100254.88
2018-10-07T07:04:17.516Z,100254.34
2018-10-07T07:06:46.762Z,100251.25
2018-10-07T07:09:15.701Z,100264.61
2018-10-07T07:11:44.604Z,100270.79
2018-10-07T07:14:13.469Z,100286.47
2018-10-07T07:16:42.386Z,100287.72
2018-10-07T07:19:11.624Z,100288.93
2018-10-07T07:21:40.499Z,100296.44
2018-10-07T07:24:09.394Z,100296.58
2018-10-07T07:26:38.301Z,100298.08
2018-10-07T07:29:07.148Z,100305.94
2018-10-07T07:31:36.347Z,100311.25
2018-10-07T07:34:05.857Z,100323.59
2018-10-07T07:36:34.774Z,100336.36
2018-10-07T07:39:05.175Z,100336.66
2018-10-07T07:41:34.133Z,100330.88
2018-10-07T07:44:04.046Z,100335.23
2018-10-07T07:46:32.959Z,100337.57
2018-10-07T07:49:01.895Z,100347.67
2018-10-07T07:51:31.037Z,100353.59
2018-10-07T07:54:02.930Z,100349.00
2018-10-07T07:56:31.794Z,100340.93
2018-10-07T07:59:00.985Z,100340.69
2018-10-07T08:01:29.866Z,100347.56
2018-10-07T08:03:58.726Z,100350.56
2018-10-07T08:06:27.922Z,100367.10
2018-10-07T08:08:56.902Z,100383.13
2018-10-07T08:11:25.663Z,100387.22
2018-10-07T08:13:54.880Z,100393.72
2018-10-07T08:16:23.859Z,100389.63
2018-10-07T08:18:52.755Z,100389.41
2018-10-07T08:21:21.931Z,100389.27
2018-10-07T08:23:50.813Z,100394.44
2018-10-07T08:26:19.798Z,100395.33
2018-10-07T08:28:49.034Z,100398.81
2018-10-07T08:31:17.914Z,100392.28
2018-10-07T08:33:46.829Z,100396.70
2018-10-07T08:36:16.110Z,100396.81
2018-10-07T08:38:45.082Z,100396.73
2018-10-07T08:41:14.081Z,100398.70
2018-10-07T08:43:43.260Z,100393.00
2018-10-07T08:46:12.231Z,100399.99
2018-10-07T08:48:41.146Z,100400.16
2018-10-07T08:51:10.060Z,100405.17
2018-10-07T08:53:38.960Z,100409.38
2018-10-07T08:56:08.162Z,100408.55
2018-10-07T08:58:36.999Z,100406.84
2018-10-07T09:01:06.198Z,100398.42
2018-10-07T09:03:35.161Z,100402.20
2018-10-07T09:06:04.946Z,100404.20
2018-10-07T09:08:34.194Z,100402.74
2018-10-07T09:11:03.286Z,100404.13
2018-10-07T09:13:33.846Z,100401.84
2018-10-07T09:16:05.258Z,100393.94
2018-10-07T09:18:34.477Z,100390.28
2018-10-07T09:21:03.587Z,100399.73
2018-10-07T09:23:33.101Z,100400.28
2018-10-07T09:26:03.735Z,100401.06
2018-10-07T09:28:32.697Z,100401.77
2018-10-07T09:31:02.951Z,100399.67
2018-10-07T09:33:32.346Z,100400.70
2018-10-07T09:36:01.478Z,100410.94
2018-10-07T09:38:30.779Z,100411.31
2018-10-07T09:40:59.713Z,100408.15
2018-10-07T09:43:28.660Z,100406.79
2018-10-07T09:45:57.841Z,100407.38
2018-10-07T09:48:26.809Z,100410.74
2018-10-07T09:50:55.710Z,100401.15
2018-10-07T09:53:24.644Z,100410.56
2018-10-07T09:55:53.577Z,100416.98
2018-10-07T09:58:22.894Z,100420.19
2018-10-07T10:00:51.921Z,100419.61
2018-10-07T10:03:20.813Z,100422.64
2018-10-07T10:05:50.033Z,100425.73
2018-10-07T10:08:19.034Z,100438.95
2018-10-07T10:10:47.984Z,100449.28
2018-10-07T10:13:17.461Z,100452.81
2018-10-07T10:15:46.520Z,100448.84
2018-10-07T10:18:26.231Z,100445.48
2018-10-07T10:20:58.154Z,100442.48
2018-10-07T10:23:52.232Z,100441.56
2018-10-07T10:26:30.663Z,100451.45
2018-10-07T10:29:15.191Z,100457.95
2018-10-07T10:31:55.324Z,100457.46
2018-10-07T10:34:30.688Z,100459.19
2018-10-07T10:37:06.541Z,100455.84
2018-10-07T10:40:10.146Z,100457.69
2018-10-07T10:42:46.890Z,100466.03
2018-10-07T10:45:41.020Z,100467.45
2018-10-07T10:48:28.742Z,100459.27
2018-10-07T10:51:04.478Z,100455.77
2018-10-07T10:53:44.853Z,100453.44
2018-10-07T10:56:18.741Z,100456.51
2018-10-07T11:00:55.705Z,100457.69
2018-10-07T11:04:32.503Z,100458.95
2018-10-07T11:07:14.113Z,100457.69
2018-10-07T11:09:53.252Z,100454.10
2018-10-07T11:13:30.890Z,100457.17
2018-10-07T11:16:42.566Z,100455.09
2018-10-07T11:19:30.582Z,100454.94
2018-10-07T11:22:12.470Z,100453.98
2018-10-07T11:26:57.137Z,100472.10
2018-10-07T11:30:00.484Z,100473.89
2018-10-07T11:32:36.449Z,100462.77
2018-10-07T11:35:19.325Z,100466.44
2018-10-07T11:37:54.244Z,100462.27
2018-10-07T11:40:31.037Z,100458.70
2018-10-07T11:43:43.278Z,100463.64
2018-10-07T11:49:13.456Z,100451.60
2018-10-07T11:51:51.151Z,100456.73
2018-10-07T11:54:29.347Z,100457.23
2018-10-07T11:56:58.894Z,100449.31
2018-10-07T11:59:28.162Z,100448.64
2018-10-07T12:01:57.354Z,100449.91
2018-10-07T12:04:26.602Z,100453.13
2018-10-07T12:06:55.977Z,100448.69
2018-10-07T12:09:25.562Z,100444.19
2018-10-07T12:11:54.766Z,100447.31
2018-10-07T12:14:24.115Z,100450.85
2018-10-07T12:16:53.975Z,100446.39
2018-10-07T12:19:23.429Z,100448.25
2018-10-07T12:22:08.939Z,100454.61
2018-10-07T12:27:30.591Z,100459.83
2018-10-07T12:30:11.207Z,100463.87
2018-10-07T12:32:59.052Z,100460.58
2018-10-07T12:35:46.111Z,100454.84
2018-10-07T12:38:30.575Z,100454.06
2018-10-07T12:44:22.904Z,100453.20
2018-10-07T12:47:03.567Z,100461.50
2018-10-07T12:49:45.823Z,100469.78
2018-10-07T12:52:31.586Z,100465.48
2018-10-07T12:55:34.317Z,100464.02
2018-10-07T12:58:14.310Z,100465.89
2018-10-07T13:01:04.866Z,100466.09
2018-10-07T13:06:30.762Z,100479.58
2018-10-07T13:09:08.452Z,100478.02
2018-10-07T13:14:51.385Z,100489.34
2018-10-07T13:17:28.797Z,100488.68
2018-10-07T13:20:19.374Z,100485.69
2018-10-07T13:26:27.305Z,100487.57
2018-10-07T13:29:17.876Z,100490.90
2018-10-07T13:31:58.607Z,100489.55
2018-10-07T13:34:30.444Z,100487.66
2018-10-07T13:37:03.968Z,100494.36
2018-10-07T13:39:38.091Z,100497.67
2018-10-07T13:42:28.514Z,100503.33
2018-10-07T13:45:15.396Z,100504.77
2018-10-07T13:47:58.898Z,100503.42
2018-10-07T13:50:45.304Z,100499.23
2018-10-07T13:53:29.480Z,100498.14
2018-10-07T13:56:18.480Z,100508.80
2018-10-07T14:02:08.926Z,100505.26
2018-10-07T14:07:57.916Z,100515.21
2018-10-07T14:10:42.387Z,100524.81
2018-10-07T14:13:25.495Z,100522.99
2018-10-07T14:18:52.768Z,100521.58
2018-10-07T14:24:24.049Z,100525.83
2018-10-07T14:26:53.644Z,100531.10
2018-10-07T14:29:23.087Z,100536.66
2018-10-07T14:31:52.824Z,100543.88
2018-10-07T14:34:22.453Z,100535.83
2018-10-07T14:36:51.964Z,100540.97
2018-10-07T14:39:21.623Z,100545.67
2018-10-07T14:41:50.965Z,100549.77
2018-10-07T14:44:21.562Z,100546.05
2018-10-07T14:46:51.759Z,100543.73
2018-10-07T14:49:21.371Z,100558.59
2018-10-07T14:51:50.645Z,100559.98
2018-10-07T14:54:20.233Z,100559.00
2018-10-07T14:56:49.503Z,100569.48
2018-10-07T14:59:18.784Z,100572.56
2018-10-07T15:01:48.332Z,100575.28
2018-10-07T15:04:17.680Z,100573.24
2018-10-07T15:06:47.104Z,100574.36
2018-10-07T15:09:16.756Z,100570.02
2018-10-07T15:11:46.046Z,100579.83
2018-10-07T15:14:15.404Z,100584.84
2018-10-07T15:16:44.684Z,100585.20
2018-10-07T15:19:14.021Z,100589.92
2018-10-07T15:21:43.616Z,100586.89
2018-10-07T15:24:12.920Z,100589.75
2018-10-07T15:26:42.211Z,100592.95
2018-10-07T15:29:11.492Z,100593.59
2018-10-07T15:31:40.804Z,100596.78
2018-10-07T15:34:10.422Z,100594.58
2018-10-07T15:36:39.734Z,100602.64
2018-10-07T15:39:09.212Z,100590.16
2018-10-07T15:41:38.517Z,100597.70
2018-10-07T15:44:08.315Z,100614.16
2018-10-07T15:46:38.942Z,100608.88
2018-10-07T15:49:08.508Z,100611.50
2018-10-07T15:51:37.762Z,100605.77
2018-10-07T15:54:07.339Z,100605.17
2018-10-07T15:56:36.669Z,100605.44
2018-10-07T15:59:05.956Z,100611.64
2018-10-07T16:01:35.518Z,100607.34
2018-10-07T16:04:05.763Z,100605.61
2018-10-07T16:06:35.479Z,100616.59
2018-10-07T16:09:06.777Z,100613.39
2018-10-07T16:11:36.096Z,100616.97
2018-10-07T16:14:06.051Z,100616.95
2018-10-07T16:16:35.668Z,100624.33
2018-10-07T16:19:05.015Z,100632.70
2018-10-07T16:21:35.246Z,100633.69
2018-10-07T16:24:05.905Z,100635.62
2018-10-07T16:26:35.255Z,100638.09
2018-10-07T16:29:04.588Z,100641.58
2018-10-07T16:31:34.153Z,100642.19
2018-10-07T16:34:05.244Z,100645.34
2018-10-07T16:36:34.500Z,100648.44
2018-10-07T16:39:05.069Z,100655.09
2018-10-07T16:41:34.531Z,100665.02
2018-10-07T16:44:09.242Z,100663.32
2018-10-07T16:46:57.506Z,100670.35
2018-10-07T16:49:37.066Z,100678.80
2018-10-07T16:52:07.890Z,100679.23
2018-10-07T16:54:46.396Z,100679.44
2018-10-07T16:57:17.217Z,100687.23
2018-10-07T16:59:57.620Z,100691.88
2018-10-07T17:02:35.512Z,100700.80
2018-10-07T17:05:13.779Z,100705.68
2018-10-07T17:07:47.046Z,100707.90
2018-10-07T17:10:22.387Z,100725.09
2018-10-07T17:13:12.262Z,100719.20
2018-10-07T17:15:48.358Z,100738.08
2018-10-07T17:18:22.914Z,100738.33
2018-10-07T17:20:57.669Z,100747.52
2018-10-07T17:23:32.180Z,100755.84
2018-10-07T17:26:11.685Z,100757.05
2018-10-07T17:28:45.163Z,100759.48
2018-10-07T17:31:16.110Z,100769.70
2018-10-07T17:33:55.509Z,100765.95
2018-10-07T17:36:30.085Z,100773.19
2018-10-07T17:39:04.053Z,100782.09
2018-10-07T17:44:57.416Z,100784.14
2018-10-07T17:47:42.643Z,100785.00
2018-10-07T17:53:23.679Z,100801.80
2018-10-07T17:56:17.072Z,100804.69
2018-10-07T18:02:31.710Z,100809.59
2018-10-07T18:05:14.661Z,100815.44
2018-10-07T18:07:44.038Z,100820.33
2018-10-07T18:10:13.744Z,100818.86
2018-10-07T18:12:43.081Z,100818.72
2018-10-07T18:15:12.401Z,100817.72
2018-10-07T18:17:41.804Z,100826.38
2018-10-07T18:20:11.123Z,100835.91
2018-10-07T18:22:40.671Z,100837.31
2018-10-07T18:25:09.950Z,100840.23
2018-10-07T18:27:39.236Z,100842.16
2018-10-07T18:30:08.603Z,100840.87
2018-10-07T18:32:37.907Z,100856.41
2018-10-07T18:35:07.485Z,100856.13
2018-10-07T18:37:36.767Z,100859.69
2018-10-07T18:40:06.426Z,100858.53
2018-10-07T18:42:35.803Z,100859.86
2018-10-07T18:45:06.161Z,100861.14
2018-10-07T18:47:35.755Z,100867.03
2018-10-07T18:50:06.947Z,100872.45
2018-10-07T18:52:36.196Z,100876.50
2018-10-07T18:55:05.541Z,100880.91
2018-10-07T18:57:34.809Z,100877.47
2018-10-07T19:00:06.588Z,100882.97
2018-10-07T19:02:35.871Z,100888.93
2018-10-07T19:05:05.369Z,100898.63
2018-10-07T19:07:34.992Z,100899.05
2018-10-07T19:10:05.531Z,100901.50
2018-10-07T19:12:34.849Z,100896.45
2018-10-07T19:15:04.885Z,100911.58
2018-10-07T19:17:34.240Z,100901.97
2018-10-07T19:20:05.424Z,100906.41
2018-10-07T19:22:35.312Z,100912.59
2018-10-07T19:25:04.710Z,100914.55
2018-10-07T19:27:34.178Z,100921.97
2018-10-07T19:30:04.597Z,100920.07
2018-10-07T19:32:33.905Z,100914.22
2018-10-07T19:35:03.503Z,100919.73
2018-10-07T19:37:33.452Z,100922.67
2018-10-07T19:40:03.764Z,100923.25
2018-10-07T19:42:32.988Z,100925.63
2018-10-07T19:45:02.445Z,100926.96
2018-10-07T19:47:32.052Z,100929.25
2018-10-07T19:50:01.337Z,100926.32
2018-10-07T19:52:30.746Z,100930.55
2018-10-07T19:54:59.908Z,100935.56
2018-10-07T19:57:29.050Z,100932.45
2018-10-07T19:59:59.024Z,100931.34
2018-10-07T20:02:29.321Z,100937.79
2018-10-07T20:04:58.281Z,100939.47
2018-10-07T20:07:27.506Z,100935.61
2018-10-07T20:09:56.414Z,100940.62
2018-10-07T20:12:26.449Z,100937.80
2018-10-07T20:14:55.713Z,100943.20
2018-10-07T20:17:24.578Z,100947.73
2018-10-07T20:19:53.474Z,100946.77
2018-10-07T20:22:22.643Z,100949.31
2018-10-07T20:24:51.542Z,100954.25
2018-10-07T20:28:50.093Z,100955.18
2018-10-07T20:31:19.021Z,100961.33
2018-10-07T20:33:47.953Z,100960.80
2018-10-07T20:36:17.746Z,100963.90
2018-10-07T20:38:46.627Z,100966.55
2018-10-07T20:41:15.469Z,100971.20
2018-10-07T20:43:44.337Z,100975.23
2018-10-07T20:46:13.234Z,100971.09
2018-10-07T20:48:42.482Z,100971.48
2018-10-07T20:51:11.532Z,100975.63
2018-10-07T20:53:40.455Z,100972.33
2018-10-07T20:56:10.650Z,100969.58
2018-10-07T20:58:39.533Z,100973.77
2018-10-07T21:01:08.446Z,100972.05
2018-10-07T21:03:37.629Z,100971.39
2018-10-07T21:06:06.562Z,100964.85
2018-10-07T21:08:35.485Z,100964.98
2018-10-07T21:11:04.717Z,100956.08
2018-10-07T21:13:33.615Z,100955.33
2018-10-07T21:16:03.597Z,100961.86
2018-10-07T21:18:32.445Z,100960.54
2018-10-07T21:21:01.705Z,100963.25
2018-10-07T21:23:30.897Z,100961.95
2018-10-07T21:25:59.757Z,100968.16
2018-10-07T21:28:28.661Z,100977.35
2018-10-07T21:30:57.556Z,100976.39
2018-10-07T21:33:26.405Z,100979.04
2018-10-07T21:35:55.604Z,100982.55
2018-10-07T21:38:24.555Z,100979.33
2018-10-07T21:40:53.594Z,100978.84
2018-10-07T21:43:22.474Z,100976.58
2018-10-07T21:45:51.421Z,100983.10
2018-10-07T21:48:20.563Z,100982.41
2018-10-07T21:50:49.423Z,100974.95
2018-10-07T21:53:18.370Z,100974.66
2018-10-07T21:55:47.569Z,100975.63
2018-10-07T21:58:16.461Z,100977.78
2018-10-07T22:00:45.363Z,100982.73
2018-10-07T22:03:14.570Z,100982.24
2018-10-07T22:05:43.438Z,100975.34
2018-10-07T22:08:12.350Z,100972.33
2018-10-07T22:10:41.666Z,100973.06
2018-10-07T22:13:11.145Z,100966.16
2018-10-07T22:15:40.196Z,100964.08
2018-10-07T22:18:10.192Z,100969.83
2018-10-07T22:20:39.430Z,100973.33
2018-10-07T22:23:09.145Z,100968.21
2018-10-07T22:25:38.503Z,100971.97
2018-10-07T22:28:08.554Z,100974.71
2018-10-07T22:30:37.590Z,100971.88
2018-10-07T22:33:07.410Z,100971.38
2018-10-07T22:35:36.304Z,100970.97
2018-10-07T22:38:05.928Z,100981.73
2018-10-07T22:40:35.078Z,100977.67
2018-10-07T22:43:03.936Z,100979.95
2018-10-07T22:45:34.286Z,100978.63
2018-10-07T22:48:05.384Z,100977.62
2018-10-07T22:50:35.504Z,100973.60
2018-10-07T22:53:04.550Z,100979.65
2018-10-07T22:55:33.419Z,100975.39
2018-10-07T22:58:02.828Z,100977.27
2018-10-07T23:00:32.016Z,100977.98
2018-10-07T23:03:00.910Z,100982.70
2018-10-07T23:05:29.761Z,100987.21
2018-10-07T23:07:58.633Z,100986.81
2018-10-07T23:10:27.580Z,100986.14
2018-10-07T23:12:56.791Z,100983.97
2018-10-07T23:15:25.630Z,100985.48
2018-10-07T23:17:54.530Z,100987.16
2018-10-07T23:20:23.949Z,100986.03
2018-10-07T23:22:53.254Z,100985.69
2018-10-07T23:25:22.326Z,100985.48
2018-10-07T23:27:51.514Z,100977.62
2018-10-07T23:30:20.384Z,100984.71
2018-10-07T23:32:49.713Z,100981.92
2018-10-07T23:35:18.880Z,100978.62
2018-10-07T23:37:49.417Z,100979.37
2018-10-07T23:40:18.502Z,100977.73
2018-10-07T23:42:47.368Z,100978.87
2018-10-07T23:45:16.255Z,100974.91
2018-10-07T23:47:45.118Z,100974.14
2018-10-07T23:50:14.357Z,100976.88
2018-10-07T23:52:43.252Z,100974.48
2018-10-07T23:55:12.105Z,100972.77
2018-10-07T23:57:41.274Z,100969.25
